Time;durP1;ratioP1;P1;durP2;ratioP2;P2;SDS_P1;SDS_P2;PMS_P1;PMS_P2;Temp;Humidity;BMP_temperature;BMP_pressure;BME280_temperature;BME280_humidity;BME280_pressure;Samples;Min_cycle;Max_cycle;Signal;HPM_P1;HPM_P2
2022/12/06 00:02:00;;;;;;;;;16.00;15.75;;;;;;;;5077355;27;51124;-45
2022/12/06 00:04:45;;;;;;;;;13.25;12.00;;;;;;;;5075503;27;51052;-43
2022/12/06 00:07:31;;;;;;;;;17.50;13.75;;;;;;;;5073435;27;51114;-46
2022/12/06 00:10:16;;;;;;;;;18.75;14.50;;;;;;;;5072368;27;51487;-44
2022/12/06 00:13:01;;;;;;;;;11.75;11.50;;;;;;;;5075756;27;51184;-46
2022/12/06 00:15:45;;;;;;;;;16.25;14.00;;;;;;;;5074054;27;51207;-45
2022/12/06 00:18:30;;;;;;;;;13.50;12.25;;;;;;;;5073882;27;51055;-45
2022/12/06 00:21:16;;;;;;;;;14.00;13.50;;;;;;;;5073957;27;51014;-46
2022/12/06 00:24:06;;;;;;;;;13.00;11.00;;;;;;;;5064831;27;51090;-44
2022/12/06 00:26:50;;;;;;;;;12.75;11.25;;;;;;;;5062777;28;51078;-51
2022/12/06 00:29:35;;;;;;;;;18.00;13.25;;;;;;;;5073556;27;51579;-44
2022/12/06 00:32:19;;;;;;;;;14.50;11.50;;;;;;;;5071546;27;51544;-44
2022/12/06 00:35:04;;;;;;;;;15.00;14.00;;;;;;;;5074505;27;51133;-46
2022/12/06 00:37:48;;;;;;;;;13.00;10.25;;;;;;;;5072576;27;51144;-44
2022/12/06 00:40:33;;;;;;;;;13.50;13.00;;;;;;;;5072192;27;51524;-43
2022/12/06 00:43:17;;;;;;;;;14.50;10.50;;;;;;;;5072897;27;51123;-44
2022/12/06 00:46:02;;;;;;;;;14.00;12.00;;;;;;;;5070537;27;51034;-46
2022/12/06 00:48:47;;;;;;;;;16.50;13.50;;;;;;;;5064266;27;51086;-47
2022/12/06 00:51:33;;;;;;;;;15.00;13.50;;;;;;;;5064448;27;51103;-48
2022/12/06 00:54:18;;;;;;;;;15.25;13.50;;;;;;;;5067165;27;51545;-44
2022/12/06 00:57:02;;;;;;;;;13.50;11.25;;;;;;;;5080262;27;51135;-45
2022/12/06 00:59:47;;;;;;;;;16.75;13.75;;;;;;;;5082240;27;51365;-47
2022/12/06 01:02:31;;;;;;;;;13.75;11.75;;;;;;;;5075594;27;51033;-46
2022/12/06 01:05:15;;;;;;;;;19.00;14.00;;;;;;;;5081761;27;51345;-46
2022/12/06 01:08:00;;;;;;;;;16.75;12.75;;;;;;;;5082185;27;51087;-46
2022/12/06 01:10:52;;;;;;;;;13.50;12.00;;;;;;;;5062546;27;51273;-46
2022/12/06 01:13:36;;;;;;;;;11.75;10.25;;;;;;;;5064280;27;51224;-45
2022/12/06 01:16:23;;;;;;;;;15.00;11.25;;;;;;;;5081988;27;51128;-45
2022/12/06 01:19:07;;;;;;;;;15.75;13.50;;;;;;;;5081698;27;51474;-45
2022/12/06 01:21:51;;;;;;;;;11.75;11.25;;;;;;;;5081981;27;51074;-46
2022/12/06 01:24:36;;;;;;;;;10.00;9.50;;;;;;;;5081574;27;50987;-44
2022/12/06 01:27:20;;;;;;;;;16.75;14.25;;;;;;;;5081769;27;51118;-46
2022/12/06 01:30:05;;;;;;;;;19.25;14.75;;;;;;;;5079231;27;51105;-45
2022/12/06 01:32:49;;;;;;;;;16.00;13.25;;;;;;;;5081599;27;51051;-46
2022/12/06 01:35:38;;;;;;;;;17.00;14.75;;;;;;;;5081411;27;51513;-46
2022/12/06 01:38:22;;;;;;;;;15.75;12.25;;;;;;;;5081360;27;51165;-45
2022/12/06 01:41:07;;;;;;;;;16.50;14.25;;;;;;;;5081818;27;51109;-52
2022/12/06 01:43:52;;;;;;;;;19.50;16.25;;;;;;;;5080284;27;51086;-46
2022/12/06 01:46:38;;;;;;;;;17.25;12.75;;;;;;;;5081285;27;51144;-51
2022/12/06 01:49:25;;;;;;;;;16.25;13.00;;;;;;;;5081329;27;51446;-46
2022/12/06 01:52:12;;;;;;;;;14.00;12.25;;;;;;;;5081555;27;51093;-50
2022/12/06 01:54:58;;;;;;;;;15.50;12.00;;;;;;;;5080997;27;51085;-46
2022/12/06 01:57:42;;;;;;;;;9.50;8.75;;;;;;;;5080846;27;51065;-47
2022/12/06 02:00:26;;;;;;;;;17.25;13.50;;;;;;;;5080427;27;50975;-48
2022/12/06 02:03:15;;;;;;;;;15.75;14.75;;;;;;;;5080943;27;51117;-46
2022/12/06 02:06:01;;;;;;;;;11.25;10.75;;;;;;;;5081050;27;51085;-47
2022/12/06 02:08:46;;;;;;;;;11.00;11.00;;;;;;;;5077442;27;51484;-44
2022/12/06 02:11:30;;;;;;;;;21.50;13.50;;;;;;;;5059263;28;51205;-46
2022/12/06 02:14:17;;;;;;;;;14.75;13.00;;;;;;;;5060582;28;51049;-47
2022/12/06 02:17:20;;;;;;;;;15.50;12.25;;;;;;;;5060578;28;50949;-48
2022/12/06 02:20:11;;;;;;;;;13.00;12.50;;;;;;;;5080400;27;50967;-46
2022/12/06 02:23:15;;;;;;;;;12.00;11.75;;;;;;;;5080240;27;51245;-47
2022/12/06 02:26:17;;;;;;;;;15.50;12.00;;;;;;;;5064233;27;51239;-47
2022/12/06 02:29:11;;;;;;;;;16.75;14.75;;;;;;;;5080227;27;51176;-45
2022/12/06 02:32:17;;;;;;;;;16.75;13.50;;;;;;;;5080655;27;51072;-46
2022/12/06 02:35:01;;;;;;;;;16.75;13.75;;;;;;;;5079989;27;51569;-47
2022/12/06 02:37:52;;;;;;;;;17.25;16.00;;;;;;;;5093806;27;51279;-45
2022/12/06 02:40:40;;;;;;;;;16.00;15.50;;;;;;;;5080622;27;51388;-49
2022/12/06 02:43:30;;;;;;;;;15.00;14.00;;;;;;;;5073690;27;51208;-46
2022/12/06 02:46:16;;;;;;;;;20.00;15.25;;;;;;;;5078844;27;51463;-44
2022/12/06 02:49:02;;;;;;;;;16.50;15.00;;;;;;;;5080030;27;51059;-45
2022/12/06 02:51:47;;;;;;;;;17.75;15.75;;;;;;;;5080242;27;51529;-46
2022/12/06 02:54:32;;;;;;;;;22.00;16.75;;;;;;;;5073795;27;51046;-47
2022/12/06 02:57:18;;;;;;;;;14.50;12.50;;;;;;;;5080130;27;51049;-49
2022/12/06 03:00:22;;;;;;;;;14.25;12.75;;;;;;;;5079975;27;51106;-47
2022/12/06 03:03:25;;;;;;;;;18.00;15.00;;;;;;;;5079857;27;51205;-46
2022/12/06 03:06:22;;;;;;;;;15.50;13.25;;;;;;;;5079600;27;51390;-49
2022/12/06 03:09:13;;;;;;;;;14.25;13.75;;;;;;;;5075864;27;51935;-45
2022/12/06 03:12:23;;;;;;;;;15.75;13.50;;;;;;;;5057506;28;51290;-47
2022/12/06 03:15:15;;;;;;;;;16.75;14.25;;;;;;;;5059350;28;50976;-46
2022/12/06 03:18:06;;;;;;;;;14.00;14.00;;;;;;;;5059692;28;51347;-43
2022/12/06 03:20:53;;;;;;;;;12.25;12.00;;;;;;;;5074073;27;51060;-44
2022/12/06 03:23:42;;;;;;;;;16.00;14.25;;;;;;;;5079841;27;51213;-46
2022/12/06 03:26:29;;;;;;;;;21.75;18.75;;;;;;;;5079272;27;51153;-45
2022/12/06 03:29:15;;;;;;;;;13.25;12.50;;;;;;;;5079603;28;52040;-44
2022/12/06 03:32:01;;;;;;;;;23.25;15.00;;;;;;;;5077445;28;51183;-44
2022/12/06 03:34:48;;;;;;;;;14.00;13.00;;;;;;;;5079933;28;50984;-45
2022/12/06 03:37:34;;;;;;;;;14.25;12.75;;;;;;;;5079229;28;51489;-44
2022/12/06 03:40:29;;;;;;;;;16.00;14.00;;;;;;;;5079519;28;51167;-46
2022/12/06 03:43:13;;;;;;;;;15.50;13.00;;;;;;;;5079597;28;51444;-49
2022/12/06 03:45:58;;;;;;;;;20.75;16.50;;;;;;;;5079373;28;51038;-48
2022/12/06 03:48:45;;;;;;;;;17.25;15.75;;;;;;;;5078480;28;51101;-46
2022/12/06 03:51:32;;;;;;;;;22.00;17.75;;;;;;;;5079180;28;51024;-47
2022/12/06 03:54:16;;;;;;;;;19.00;17.25;;;;;;;;5079350;28;51174;-46
2022/12/06 03:57:01;;;;;;;;;13.50;13.50;;;;;;;;5073336;28;51037;-46
2022/12/06 03:59:45;;;;;;;;;18.25;16.25;;;;;;;;5078099;28;51039;-45
2022/12/06 04:02:29;;;;;;;;;15.75;14.00;;;;;;;;5079194;28;51534;-45
2022/12/06 04:05:14;;;;;;;;;20.75;16.00;;;;;;;;5079337;28;51459;-46
2022/12/06 04:07:58;;;;;;;;;13.50;13.50;;;;;;;;5079048;28;51008;-47
2022/12/06 04:10:42;;;;;;;;;22.75;15.50;;;;;;;;5057968;28;51567;-49
2022/12/06 04:13:28;;;;;;;;;17.75;16.25;;;;;;;;5059091;28;51306;-48
2022/12/06 04:19:15;;;;;;;;;14.25;13.50;;;;;;;;5073720;28;51194;-46
2022/12/06 04:25:03;;;;;;;;;18.50;16.00;;;;;;;;5081928;27;51101;-44
2022/12/06 04:39:59;;;;;;;;;20.00;16.75;;;;;;;;5078389;27;51049;-44
2022/12/06 04:45:46;;;;;;;;;17.00;13.75;;;;;;;;5082652;27;51091;-46
2022/12/06 04:48:31;;;;;;;;;17.25;14.25;;;;;;;;5075773;27;51022;-47
2022/12/06 04:51:15;;;;;;;;;15.50;15.50;;;;;;;;5077035;27;51205;-48
2022/12/06 04:53:59;;;;;;;;;16.50;15.00;;;;;;;;5082134;27;51531;-44
2022/12/06 04:56:44;;;;;;;;;15.25;15.25;;;;;;;;5076806;27;51196;-45
2022/12/06 04:59:28;;;;;;;;;23.75;16.25;;;;;;;;5082301;27;51106;-48
2022/12/06 05:02:14;;;;;;;;;17.00;15.00;;;;;;;;5074419;27;51996;-46
2022/12/06 05:04:58;;;;;;;;;17.00;16.25;;;;;;;;5064546;27;51154;-46
2022/12/06 05:07:43;;;;;;;;;18.50;14.00;;;;;;;;5061801;28;51438;-45
2022/12/06 05:10:27;;;;;;;;;24.00;22.00;;;;;;;;5061960;27;51101;-46
2022/12/06 05:13:12;;;;;;;;;26.25;25.25;;;;;;;;5061579;28;51483;-49
2022/12/06 05:16:00;;;;;;;;;41.50;33.00;;;;;;;;5061858;28;51108;-45
2022/12/06 05:18:44;;;;;;;;;44.50;31.75;;;;;;;;5061479;28;50997;-50
2022/12/06 05:21:29;;;;;;;;;37.25;30.50;;;;;;;;5061528;28;51140;-45
2022/12/06 05:24:13;;;;;;;;;27.00;25.00;;;;;;;;5061620;28;51401;-49
2022/12/06 05:26:58;;;;;;;;;29.25;22.00;;;;;;;;5061460;28;51067;-47
2022/12/06 05:29:42;;;;;;;;;19.00;16.50;;;;;;;;5061456;28;51052;-44
2022/12/06 05:32:27;;;;;;;;;19.75;15.50;;;;;;;;5061110;28;51027;-50
2022/12/06 05:35:12;;;;;;;;;19.75;16.75;;;;;;;;5061381;28;51129;-47
2022/12/06 05:37:56;;;;;;;;;24.75;22.00;;;;;;;;5061105;28;51246;-46
2022/12/06 05:40:41;;;;;;;;;21.50;16.50;;;;;;;;5061185;28;51160;-46
2022/12/06 05:43:25;;;;;;;;;20.50;17.25;;;;;;;;5061040;28;51042;-47
2022/12/06 05:46:10;;;;;;;;;24.50;21.50;;;;;;;;5075990;27;51073;-45
2022/12/06 05:48:54;;;;;;;;;19.00;15.50;;;;;;;;5080404;27;51114;-49
2022/12/06 05:51:39;;;;;;;;;18.75;16.50;;;;;;;;5080922;27;51113;-45
2022/12/06 05:54:23;;;;;;;;;22.25;17.50;;;;;;;;5081614;27;51224;-48
2022/12/06 05:57:07;;;;;;;;;19.50;17.50;;;;;;;;5081153;27;51217;-46
2022/12/06 05:59:52;;;;;;;;;17.50;16.25;;;;;;;;5081016;27;51396;-46
2022/12/06 06:02:36;;;;;;;;;23.50;18.00;;;;;;;;5080887;27;51155;-45
2022/12/06 06:05:21;;;;;;;;;26.75;21.75;;;;;;;;5081368;27;51068;-44
2022/12/06 06:08:05;;;;;;;;;33.25;27.50;;;;;;;;5080435;27;51370;-47
2022/12/06 06:10:49;;;;;;;;;35.25;30.50;;;;;;;;5066872;27;51279;-45
2022/12/06 06:13:34;;;;;;;;;42.00;31.00;;;;;;;;5075783;27;51553;-47
2022/12/06 06:16:19;;;;;;;;;46.75;35.50;;;;;;;;5080653;27;51072;-48
2022/12/06 06:19:03;;;;;;;;;49.75;35.50;;;;;;;;5080926;27;51177;-48
2022/12/06 06:35:36;;;;;;;;;68.25;54.00;;;;;;;;4862193;29;51370;-46
2022/12/06 06:38:21;;;;;;;;;66.25;49.00;;;;;;;;4863211;29;51234;-44
2022/12/06 06:41:05;;;;;;;;;69.75;56.25;;;;;;;;4862499;29;51086;-46
2022/12/06 06:43:50;;;;;;;;;55.00;43.25;;;;;;;;4863400;29;51558;-46
2022/12/06 06:46:35;;;;;;;;;58.50;44.50;;;;;;;;4862220;29;51087;-47
2022/12/06 06:49:19;;;;;;;;;56.00;43.25;;;;;;;;4863607;29;51090;-44
2022/12/06 06:52:04;;;;;;;;;54.75;42.75;;;;;;;;4867417;29;51210;-45
2022/12/06 06:54:48;;;;;;;;;56.75;42.75;;;;;;;;4863076;29;51179;-45
2022/12/06 06:57:34;;;;;;;;;58.50;44.50;;;;;;;;4862675;29;51259;-45
2022/12/06 07:00:18;;;;;;;;;60.25;45.25;;;;;;;;4862651;29;51162;-44
2022/12/06 07:03:02;;;;;;;;;65.25;50.25;;;;;;;;4881603;29;51605;-47
2022/12/06 07:05:52;;;;;;;;;69.00;49.50;;;;;;;;4938706;28;51210;-46
2022/12/06 07:08:37;;;;;;;;;61.75;47.50;;;;;;;;4993937;28;51587;-44
2022/12/06 07:11:22;;;;;;;;;62.00;48.00;;;;;;;;5018014;28;51094;-44
2022/12/06 07:14:07;;;;;;;;;59.25;46.25;;;;;;;;5059535;28;51528;-47
2022/12/06 07:16:51;;;;;;;;;60.00;48.75;;;;;;;;5059352;28;51213;-47
2022/12/06 07:19:35;;;;;;;;;55.50;41.00;;;;;;;;5059396;28;51114;-44
2022/12/06 07:22:20;;;;;;;;;54.00;42.25;;;;;;;;5076094;27;51111;-46
2022/12/06 07:25:05;;;;;;;;;52.50;42.00;;;;;;;;5079578;27;51161;-45
2022/12/06 07:27:49;;;;;;;;;50.75;39.50;;;;;;;;5075836;28;51578;-48
2022/12/06 07:30:33;;;;;;;;;44.75;38.00;;;;;;;;5079326;28;51109;-50
2022/12/06 07:33:18;;;;;;;;;49.25;39.50;;;;;;;;5079892;28;51184;-52
2022/12/06 07:36:04;;;;;;;;;46.00;38.75;;;;;;;;5076838;28;51431;-53
2022/12/06 07:38:49;;;;;;;;;49.75;39.75;;;;;;;;5079717;28;51160;-48
2022/12/06 07:47:41;;;;;;;;;43.00;37.00;;;;;;;;5058901;28;51048;-47
2022/12/06 07:50:25;;;;;;;;;45.75;37.25;;;;;;;;5059142;28;51194;-52
2022/12/06 07:53:10;;;;;;;;;42.25;33.25;;;;;;;;5077553;28;51678;-46
2022/12/06 07:55:54;;;;;;;;;37.00;32.50;;;;;;;;5079063;28;51408;-49
2022/12/06 07:58:39;;;;;;;;;41.00;34.00;;;;;;;;5079072;27;51208;-47
2022/12/06 08:01:24;;;;;;;;;40.50;33.00;;;;;;;;5083178;27;51528;-47
2022/12/06 08:04:08;;;;;;;;;38.25;31.00;;;;;;;;5080789;27;51066;-51
2022/12/06 08:06:53;;;;;;;;;33.50;31.00;;;;;;;;5082559;27;50955;-46
2022/12/06 08:09:37;;;;;;;;;43.25;32.50;;;;;;;;5071061;27;51207;-47
2022/12/06 08:12:22;;;;;;;;;38.25;32.50;;;;;;;;5061987;28;51180;-49
2022/12/06 08:15:11;;;;;;;;;38.75;31.25;;;;;;;;5076649;27;51512;-48
2022/12/06 08:17:56;;;;;;;;;31.00;28.25;;;;;;;;5082695;27;51540;-46
2022/12/06 08:20:40;;;;;;;;;34.50;29.25;;;;;;;;5080890;27;51175;-53
2022/12/06 08:23:25;;;;;;;;;32.00;28.25;;;;;;;;5083252;27;51164;-45
2022/12/06 08:26:11;;;;;;;;;32.25;29.25;;;;;;;;5082489;27;51083;-47
2022/12/06 08:28:58;;;;;;;;;30.50;27.25;;;;;;;;5082472;27;51448;-43
2022/12/06 08:31:44;;;;;;;;;29.75;27.50;;;;;;;;5082685;27;51090;-48
2022/12/06 08:34:28;;;;;;;;;31.75;28.00;;;;;;;;5083236;27;51090;-47
2022/12/06 08:37:12;;;;;;;;;31.75;27.75;;;;;;;;5062076;28;51361;-48
2022/12/06 08:39:57;;;;;;;;;33.75;28.50;;;;;;;;5062227;28;51140;-46
2022/12/06 08:42:42;;;;;;;;;35.25;30.25;;;;;;;;5062281;28;51511;-50
2022/12/06 08:45:26;;;;;;;;;33.00;27.50;;;;;;;;5062011;28;51163;-48
2022/12/06 08:48:11;;;;;;;;;38.00;31.00;;;;;;;;5062465;28;51571;-50
2022/12/06 08:50:55;;;;;;;;;36.75;32.50;;;;;;;;5062089;28;51117;-48
2022/12/06 08:53:40;;;;;;;;;38.75;32.00;;;;;;;;5062314;28;51523;-48
2022/12/06 08:56:24;;;;;;;;;36.50;29.75;;;;;;;;5061726;28;51064;-46
2022/12/06 08:59:08;;;;;;;;;40.50;33.75;;;;;;;;5061994;28;51094;-48
2022/12/06 09:01:53;;;;;;;;;31.75;29.00;;;;;;;;5062019;28;51117;-45
2022/12/06 09:04:37;;;;;;;;;33.25;30.00;;;;;;;;5049940;28;51156;-48
2022/12/06 09:07:22;;;;;;;;;26.75;26.00;;;;;;;;5041714;28;51560;-47
2022/12/06 09:10:06;;;;;;;;;23.25;21.50;;;;;;;;5039315;28;51141;-47
2022/12/06 09:12:51;;;;;;;;;17.75;17.75;;;;;;;;5041304;28;51154;-46
2022/12/06 09:15:36;;;;;;;;;24.00;21.25;;;;;;;;5041107;28;51166;-46
2022/12/06 09:18:21;;;;;;;;;25.75;22.50;;;;;;;;5041783;28;51408;-48
2022/12/06 09:21:06;;;;;;;;;15.75;15.50;;;;;;;;5054710;28;51153;-45
2022/12/06 09:23:54;;;;;;;;;24.50;21.75;;;;;;;;5052918;28;51532;-48
2022/12/06 09:26:38;;;;;;;;;23.50;21.00;;;;;;;;5044873;28;51501;-46
2022/12/06 09:29:23;;;;;;;;;23.50;19.50;;;;;;;;5040949;28;51358;-44
2022/12/06 09:32:08;;;;;;;;;20.75;19.00;;;;;;;;5040973;28;51492;-47
2022/12/06 09:34:52;;;;;;;;;18.25;16.75;;;;;;;;5041115;28;51083;-45
2022/12/06 09:37:37;;;;;;;;;17.25;16.75;;;;;;;;5061439;28;51043;-48
2022/12/06 09:40:31;;;;;;;;;11.00;10.25;;;;;;;;5060955;28;51573;-45
2022/12/06 09:43:34;;;;;;;;;20.00;17.00;;;;;;;;5060850;28;51431;-49
2022/12/06 09:46:21;;;;;;;;;20.25;16.75;;;;;;;;5055639;27;51261;-47
2022/12/06 09:49:24;;;;;;;;;25.50;21.25;;;;;;;;5071303;27;51077;-47
2022/12/06 09:52:11;;;;;;;;;23.00;22.00;;;;;;;;5060581;28;52054;-46
2022/12/06 09:55:05;;;;;;;;;20.25;19.00;;;;;;;;5078734;27;51149;-47
2022/12/06 09:57:49;;;;;;;;;21.25;18.75;;;;;;;;5081192;27;51130;-46
2022/12/06 10:00:45;;;;;;;;;20.75;17.25;;;;;;;;5080694;27;51109;-45
2022/12/06 10:03:45;;;;;;;;;17.75;14.00;;;;;;;;5080901;27;51076;-45
2022/12/06 10:06:37;;;;;;;;;21.50;19.50;;;;;;;;5080919;27;51114;-48
2022/12/06 10:09:21;;;;;;;;;19.00;19.00;;;;;;;;5081100;27;51369;-49
2022/12/06 10:12:06;;;;;;;;;18.50;18.00;;;;;;;;5078908;27;51066;-46
2022/12/06 10:15:09;;;;;;;;;17.00;14.75;;;;;;;;5081165;27;51003;-45
2022/12/06 10:18:05;;;;;;;;;21.00;19.50;;;;;;;;5076870;27;51192;-49
2022/12/06 10:21:02;;;;;;;;;19.75;16.75;;;;;;;;5080348;27;51023;-49
2022/12/06 10:23:46;;;;;;;;;16.50;14.75;;;;;;;;5079919;27;51535;-44
2022/12/06 10:26:30;;;;;;;;;19.50;16.00;;;;;;;;5080413;27;51192;-48
2022/12/06 10:29:33;;;;;;;;;16.25;14.25;;;;;;;;5080776;27;51113;-53
2022/12/06 10:32:24;;;;;;;;;13.50;10.75;;;;;;;;5080525;27;51133;-51
2022/12/06 10:35:21;;;;;;;;;14.75;13.75;;;;;;;;5080197;27;51421;-50
2022/12/06 10:38:11;;;;;;;;;13.00;10.75;;;;;;;;5080310;27;51062;-46
2022/12/06 10:41:01;;;;;;;;;15.25;14.75;;;;;;;;5064543;27;51093;-47
2022/12/06 10:44:11;;;;;;;;;13.50;12.75;;;;;;;;5079967;27;51006;-53
2022/12/06 10:47:14;;;;;;;;;15.50;15.50;;;;;;;;5080324;27;51200;-50
2022/12/06 10:49:59;;;;;;;;;15.50;13.25;;;;;;;;5080389;27;51310;-48
2022/12/06 10:52:46;;;;;;;;;15.50;13.25;;;;;;;;5077728;27;51106;-52
2022/12/06 10:55:35;;;;;;;;;13.50;13.00;;;;;;;;5079921;27;51030;-51
2022/12/06 10:58:32;;;;;;;;;16.50;15.25;;;;;;;;5077372;27;51157;-50
2022/12/06 11:01:19;;;;;;;;;21.75;12.00;;;;;;;;5080112;27;51303;-49
2022/12/06 11:04:10;;;;;;;;;15.00;12.50;;;;;;;;5079571;27;51134;-48
2022/12/06 11:07:20;;;;;;;;;12.00;11.75;;;;;;;;5080080;27;51168;-50
2022/12/06 11:12:55;;;;;;;;;16.00;14.25;;;;;;;;5036665;28;51188;-51
2022/12/06 11:15:44;;;;;;;;;16.75;14.00;;;;;;;;5037066;28;51166;-50
2022/12/06 11:18:28;;;;;;;;;14.25;13.50;;;;;;;;5036713;28;51239;-49
2022/12/06 11:21:21;;;;;;;;;15.00;12.75;;;;;;;;5037161;28;51075;-50
2022/12/06 11:24:14;;;;;;;;;12.00;12.00;;;;;;;;5037026;28;51193;-51
2022/12/06 11:27:14;;;;;;;;;13.75;12.75;;;;;;;;5037183;28;51260;-51
2022/12/06 11:29:58;;;;;;;;;13.25;12.25;;;;;;;;5036636;28;51095;-49
2022/12/06 11:32:44;;;;;;;;;16.75;15.00;;;;;;;;5038420;28;51138;-52
2022/12/06 11:35:28;;;;;;;;;16.25;15.25;;;;;;;;5042962;28;51116;-49
2022/12/06 11:38:14;;;;;;;;;14.50;14.00;;;;;;;;5043563;28;51372;-52
2022/12/06 11:40:58;;;;;;;;;17.00;15.00;;;;;;;;5043622;28;51516;-51
2022/12/06 11:43:43;;;;;;;;;18.25;16.00;;;;;;;;5043508;28;51061;-53
2022/12/06 11:46:27;;;;;;;;;16.50;16.00;;;;;;;;5044059;28;51173;-50
2022/12/06 11:49:17;;;;;;;;;19.50;15.50;;;;;;;;5050328;27;51092;-49
2022/12/06 11:52:05;;;;;;;;;17.00;14.75;;;;;;;;5083265;27;51096;-47
2022/12/06 11:54:52;;;;;;;;;20.50;17.25;;;;;;;;5068007;27;51113;-48
2022/12/06 11:57:44;;;;;;;;;21.50;18.25;;;;;;;;5067224;27;51467;-48
2022/12/06 12:00:28;;;;;;;;;15.50;13.50;;;;;;;;5065367;27;50991;-49
2022/12/06 12:03:27;;;;;;;;;22.00;18.50;;;;;;;;5079668;27;51121;-47
2022/12/06 12:06:17;;;;;;;;;15.50;14.50;;;;;;;;5077067;27;51491;-50
2022/12/06 12:09:06;;;;;;;;;19.75;19.50;;;;;;;;5086081;27;51045;-50
2022/12/06 12:11:57;;;;;;;;;15.75;15.75;;;;;;;;5082539;27;51164;-46
2022/12/06 12:14:42;;;;;;;;;16.25;16.25;;;;;;;;5085591;27;51074;-52
2022/12/06 12:17:30;;;;;;;;;16.25;15.75;;;;;;;;5084644;27;51398;-48
2022/12/06 12:20:23;;;;;;;;;20.00;18.25;;;;;;;;5082503;27;51077;-47
2022/12/06 12:23:13;;;;;;;;;17.50;15.25;;;;;;;;5085701;27;51058;-48
2022/12/06 12:26:07;;;;;;;;;17.75;15.25;;;;;;;;5085292;27;51093;-45
2022/12/06 12:29:24;;;;;;;;;17.25;14.00;;;;;;;;5085536;27;51071;-46
2022/12/06 12:32:11;;;;;;;;;19.75;14.75;;;;;;;;5049328;28;51198;-49
2022/12/06 12:34:55;;;;;;;;;20.00;18.00;;;;;;;;5064819;28;51142;-50
2022/12/06 12:37:40;;;;;;;;;20.75;17.50;;;;;;;;5064715;28;51458;-46
2022/12/06 12:40:36;;;;;;;;;17.50;17.00;;;;;;;;5064759;28;51114;-48
2022/12/06 12:43:20;;;;;;;;;20.75;17.50;;;;;;;;5065284;28;51105;-48
2022/12/06 12:46:11;;;;;;;;;24.75;22.50;;;;;;;;5061153;28;51051;-47
2022/12/06 12:49:12;;;;;;;;;21.75;21.00;;;;;;;;5081481;27;51041;-49
2022/12/06 12:51:56;;;;;;;;;21.00;18.25;;;;;;;;5063170;27;51477;-54
2022/12/06 12:54:40;;;;;;;;;20.50;17.75;;;;;;;;5061704;28;51127;-47
2022/12/06 12:57:25;;;;;;;;;20.00;17.25;;;;;;;;5061924;28;51141;-48
2022/12/06 13:00:13;;;;;;;;;22.25;17.50;;;;;;;;5061901;28;50933;-47
2022/12/06 13:03:13;;;;;;;;;24.25;19.75;;;;;;;;5079540;27;51342;-48
2022/12/06 13:05:58;;;;;;;;;22.25;20.00;;;;;;;;5082025;27;51151;-50
2022/12/06 13:08:43;;;;;;;;;22.00;18.25;;;;;;;;5082051;27;51074;-52
2022/12/06 13:11:28;;;;;;;;;22.00;20.75;;;;;;;;5081733;27;51130;-49
2022/12/06 13:14:16;;;;;;;;;23.25;20.00;;;;;;;;5078544;27;51224;-47
2022/12/06 13:17:05;;;;;;;;;20.25;18.00;;;;;;;;5081762;27;51556;-48
2022/12/06 13:19:50;;;;;;;;;18.50;16.50;;;;;;;;5081881;27;51220;-47
2022/12/06 13:22:37;;;;;;;;;16.00;15.25;;;;;;;;5081740;27;51121;-47
2022/12/06 13:25:22;;;;;;;;;20.75;17.00;;;;;;;;5081756;27;51032;-49
2022/12/06 13:28:13;;;;;;;;;18.50;15.00;;;;;;;;5080539;27;51101;-49
2022/12/06 13:31:06;;;;;;;;;16.75;15.75;;;;;;;;5081902;27;51033;-51
2022/12/06 13:33:58;;;;;;;;;19.25;18.25;;;;;;;;5081615;27;51118;-46
2022/12/06 13:36:42;;;;;;;;;15.50;13.50;;;;;;;;5060396;28;51110;-49
2022/12/06 13:39:30;;;;;;;;;13.50;10.75;;;;;;;;5061401;27;51027;-52
2022/12/06 13:42:22;;;;;;;;;17.00;15.25;;;;;;;;5060981;28;51526;-47
2022/12/06 13:45:25;;;;;;;;;14.75;14.25;;;;;;;;5061105;28;51142;-44
2022/12/06 13:48:25;;;;;;;;;16.50;15.75;;;;;;;;5080412;27;51509;-50
2022/12/06 13:51:28;;;;;;;;;5.75;0.75;;;;;;;;5081491;27;51014;-46
2022/12/06 13:54:13;;;;;;;;;17.50;15.75;;;;;;;;5094531;27;51549;-51
2022/12/06 13:56:58;;;;;;;;;16.00;14.50;;;;;;;;5079739;27;51136;-51
2022/12/06 13:59:42;;;;;;;;;23.00;18.25;;;;;;;;5062715;27;51527;-48
2022/12/06 14:02:42;;;;;;;;;18.00;16.75;;;;;;;;5060111;28;51352;-48
2022/12/06 14:06:05;;;;;;;;;19.50;16.50;;;;;;;;5060643;28;51432;-47
2022/12/06 14:08:56;;;;;;;;;18.75;16.25;;;;;;;;5017706;28;51208;-50
2022/12/06 14:11:40;;;;;;;;;17.00;16.25;;;;;;;;5020082;28;51183;-48
2022/12/06 14:14:24;;;;;;;;;17.00;15.00;;;;;;;;5056931;27;51225;-47
2022/12/06 14:17:13;;;;;;;;;12.00;12.00;;;;;;;;5060785;28;51239;-47
2022/12/06 14:19:59;;;;;;;;;18.50;16.25;;;;;;;;5065306;28;51075;-49
2022/12/06 14:22:45;;;;;;;;;16.25;13.75;;;;;;;;5060710;28;51201;-50
2022/12/06 14:25:30;;;;;;;;;19.25;16.00;;;;;;;;5078370;27;51017;-48
2022/12/06 14:28:14;;;;;;;;;18.00;16.00;;;;;;;;5078698;27;52252;-46
2022/12/06 14:31:06;;;;;;;;;14.50;13.25;;;;;;;;5079938;27;51102;-46
2022/12/06 14:33:51;;;;;;;;;14.50;12.75;;;;;;;;5080156;27;51443;-49
2022/12/06 14:36:38;;;;;;;;;16.50;15.25;;;;;;;;5057760;27;51313;-50
2022/12/06 14:39:24;;;;;;;;;20.00;18.00;;;;;;;;5060265;28;51185;-50
2022/12/06 14:45:19;;;;;;;;;18.00;15.50;;;;;;;;5078730;27;51471;-51
2022/12/06 14:48:04;;;;;;;;;17.75;15.50;;;;;;;;5078166;27;51161;-49
2022/12/06 14:50:48;;;;;;;;;15.75;12.75;;;;;;;;5079153;27;51462;-51
2022/12/06 14:53:33;;;;;;;;;15.25;11.25;;;;;;;;5075597;27;51097;-50
2022/12/06 14:56:27;;;;;;;;;18.25;14.50;;;;;;;;5079245;27;51090;-48
2022/12/06 14:59:11;;;;;;;;;15.50;14.25;;;;;;;;5078172;27;51404;-56
2022/12/06 15:01:55;;;;;;;;;12.00;10.00;;;;;;;;5080045;27;51407;-52
2022/12/06 15:04:40;;;;;;;;;16.00;13.25;;;;;;;;5079892;27;51242;-51
2022/12/06 15:07:37;;;;;;;;;13.75;13.00;;;;;;;;5079060;27;51069;-51
2022/12/06 15:10:28;;;;;;;;;18.50;13.50;;;;;;;;5079603;27;52029;-52
2022/12/06 15:13:16;;;;;;;;;13.25;12.00;;;;;;;;5079801;27;51113;-48
2022/12/06 15:16:06;;;;;;;;;13.00;11.50;;;;;;;;5079860;27;51094;-50
2022/12/06 15:18:54;;;;;;;;;9.75;9.25;;;;;;;;5079586;27;51105;-49
2022/12/06 15:21:38;;;;;;;;;18.00;13.50;;;;;;;;5072634;27;51212;-46
2022/12/06 15:24:24;;;;;;;;;16.00;14.50;;;;;;;;5063412;28;51437;-48
2022/12/06 15:27:08;;;;;;;;;19.25;15.50;;;;;;;;5059507;28;51074;-51
2022/12/06 15:29:53;;;;;;;;;18.50;13.75;;;;;;;;5058759;28;51100;-48
2022/12/06 15:32:38;;;;;;;;;14.75;12.75;;;;;;;;5059238;28;51102;-50
2022/12/06 15:35:22;;;;;;;;;17.00;15.50;;;;;;;;5058700;28;51199;-49
2022/12/06 15:38:08;;;;;;;;;13.75;11.75;;;;;;;;5059243;28;52362;-49
2022/12/06 15:40:54;;;;;;;;;16.25;14.50;;;;;;;;5058518;28;51110;-48
2022/12/06 15:43:39;;;;;;;;;14.50;14.50;;;;;;;;5078494;28;51187;-44
2022/12/06 15:46:25;;;;;;;;;13.50;11.25;;;;;;;;5079708;28;51236;-52
2022/12/06 15:49:12;;;;;;;;;18.50;14.25;;;;;;;;5077711;28;51075;-49
2022/12/06 15:51:57;;;;;;;;;16.75;14.00;;;;;;;;5078230;28;51109;-51
2022/12/06 15:54:41;;;;;;;;;14.25;14.25;;;;;;;;5069899;28;51232;-49
2022/12/06 15:57:25;;;;;;;;;19.50;13.50;;;;;;;;5077127;28;51255;-52
2022/12/06 16:00:10;;;;;;;;;20.25;19.00;;;;;;;;5076917;28;51543;-50
2022/12/06 16:02:54;;;;;;;;;16.25;14.75;;;;;;;;5076607;28;51130;-48
2022/12/06 16:05:40;;;;;;;;;15.75;13.25;;;;;;;;5076991;28;51561;-50
2022/12/06 16:08:24;;;;;;;;;15.75;13.50;;;;;;;;5078396;28;51069;-51
2022/12/06 16:11:10;;;;;;;;;21.50;17.00;;;;;;;;5079189;28;50987;-49
2022/12/06 16:13:54;;;;;;;;;17.75;16.50;;;;;;;;5078937;28;51488;-50
2022/12/06 16:16:39;;;;;;;;;17.00;16.25;;;;;;;;5078916;28;51237;-51
2022/12/06 16:20:29;;;;;;;;;17.25;15.50;;;;;;;;5070017;27;51156;-47
2022/12/06 16:25:31;;;;;;;;;16.75;15.25;;;;;;;;5082752;27;51547;-48
2022/12/06 16:28:15;;;;;;;;;17.00;14.25;;;;;;;;5082866;27;51102;-49
2022/12/06 16:31:00;;;;;;;;;17.25;14.75;;;;;;;;5082953;27;51438;-53
2022/12/06 16:33:44;;;;;;;;;19.25;15.75;;;;;;;;5061930;28;51520;-48
2022/12/06 16:36:30;;;;;;;;;18.75;16.00;;;;;;;;5062231;28;51133;-50
2022/12/06 16:39:15;;;;;;;;;15.25;12.25;;;;;;;;5061841;28;51169;-46
2022/12/06 16:42:00;;;;;;;;;18.75;16.00;;;;;;;;5062299;28;51170;-50
2022/12/06 16:44:50;;;;;;;;;18.00;17.00;;;;;;;;5061442;28;51149;-49
2022/12/06 16:47:34;;;;;;;;;19.50;16.50;;;;;;;;5062313;28;51136;-47
2022/12/06 16:50:23;;;;;;;;;16.25;12.75;;;;;;;;5062028;28;51497;-44
2022/12/06 16:53:10;;;;;;;;;21.00;16.50;;;;;;;;5082113;27;51189;-47
2022/12/06 16:55:54;;;;;;;;;16.50;13.50;;;;;;;;5081683;27;51082;-48
2022/12/06 16:58:38;;;;;;;;;17.75;16.00;;;;;;;;5081799;27;51191;-50
2022/12/06 17:01:36;;;;;;;;;23.00;16.75;;;;;;;;5063113;27;51063;-48
2022/12/06 17:04:21;;;;;;;;;19.50;14.50;;;;;;;;5080666;27;51034;-47